sensor_id;sensor_type;location;lat;lon;timestamp;P1;durP1;ratioP1;P2;durP2;ratioP2
9522;SDS011;63165;43.016;25.784;2022-11-13T00:01:09;120.80;;;30.95;;
9522;SDS011;63165;43.016;25.784;2022-11-13T00:03:37;116.78;;;35.55;;
9522;SDS011;63165;43.016;25.784;2022-11-13T00:06:05;105.93;;;30.58;;
9522;SDS011;63165;43.016;25.784;2022-11-13T00:08:33;93.68;;;24.85;;
9522;SDS011;63165;43.016;25.784;2022-11-13T00:11:01;92.93;;;25.15;;
9522;SDS011;63165;43.016;25.784;2022-11-13T00:13:29;83.70;;;24.95;;
9522;SDS011;63165;43.016;25.784;2022-11-13T00:15:57;94.30;;;25.48;;
9522;SDS011;63165;43.016;25.784;2022-11-13T00:18:27;84.45;;;23.48;;
9522;SDS011;63165;43.016;25.784;2022-11-13T00:20:55;83.00;;;22.42;;
9522;SDS011;63165;43.016;25.784;2022-11-13T00:23:22;85.15;;;23.15;;
9522;SDS011;63165;43.016;25.784;2022-11-13T00:25:50;99.90;;;28.70;;
9522;SDS011;63165;43.016;25.784;2022-11-13T00:28:17;97.20;;;28.13;;
9522;SDS011;63165;43.016;25.784;2022-11-13T00:30:44;92.28;;;25.77;;
9522;SDS011;63165;43.016;25.784;2022-11-13T00:33:11;94.32;;;25.50;;
9522;SDS011;63165;43.016;25.784;2022-11-13T00:35:40;83.88;;;24.13;;
9522;SDS011;63165;43.016;25.784;2022-11-13T00:38:07;84.40;;;24.75;;
9522;SDS011;63165;43.016;25.784;2022-11-13T00:40:34;101.45;;;27.20;;
9522;SDS011;63165;43.016;25.784;2022-11-13T00:43:01;110.22;;;29.85;;
9522;SDS011;63165;43.016;25.784;2022-11-13T00:45:28;98.53;;;26.80;;
9522;SDS011;63165;43.016;25.784;2022-11-13T00:47:55;89.93;;;26.27;;
9522;SDS011;63165;43.016;25.784;2022-11-13T00:50:23;96.05;;;26.85;;
9522;SDS011;63165;43.016;25.784;2022-11-13T00:52:51;77.20;;;22.83;;
9522;SDS011;63165;43.016;25.784;2022-11-13T00:55:18;89.60;;;23.73;;
9522;SDS011;63165;43.016;25.784;2022-11-13T00:57:46;92.22;;;26.33;;
9522;SDS011;63165;43.016;25.784;2022-11-13T01:00:14;95.07;;;26.75;;
9522;SDS011;63165;43.016;25.784;2022-11-13T01:02:41;85.43;;;25.77;;
9522;SDS011;63165;43.016;25.784;2022-11-13T01:05:08;90.55;;;24.90;;
9522;SDS011;63165;43.016;25.784;2022-11-13T01:07:36;94.40;;;25.95;;
9522;SDS011;63165;43.016;25.784;2022-11-13T01:10:08;100.13;;;25.95;;
9522;SDS011;63165;43.016;25.784;2022-11-13T01:12:35;87.03;;;24.45;;
9522;SDS011;63165;43.016;25.784;2022-11-13T01:15:02;90.90;;;25.40;;
9522;SDS011;63165;43.016;25.784;2022-11-13T01:17:30;99.15;;;27.58;;
9522;SDS011;63165;43.016;25.784;2022-11-13T01:19:57;82.57;;;23.70;;
9522;SDS011;63165;43.016;25.784;2022-11-13T01:22:24;82.28;;;22.98;;
9522;SDS011;63165;43.016;25.784;2022-11-13T01:24:52;83.28;;;22.48;;
9522;SDS011;63165;43.016;25.784;2022-11-13T01:27:21;64.68;;;20.13;;
9522;SDS011;63165;43.016;25.784;2022-11-13T01:29:48;61.95;;;18.98;;
9522;SDS011;63165;43.016;25.784;2022-11-13T01:32:15;60.67;;;18.95;;
9522;SDS011;63165;43.016;25.784;2022-11-13T01:34:42;66.63;;;18.25;;
9522;SDS011;63165;43.016;25.784;2022-11-13T01:37:10;55.15;;;17.48;;
9522;SDS011;63165;43.016;25.784;2022-11-13T01:39:37;49.35;;;17.00;;
9522;SDS011;63165;43.016;25.784;2022-11-13T01:42:04;48.28;;;14.85;;
9522;SDS011;63165;43.016;25.784;2022-11-13T01:44:49;48.17;;;14.73;;
9522;SDS011;63165;43.016;25.784;2022-11-13T01:47:17;48.25;;;13.27;;
9522;SDS011;63165;43.016;25.784;2022-11-13T01:49:46;39.20;;;12.82;;
9522;SDS011;63165;43.016;25.784;2022-11-13T01:52:16;39.60;;;12.65;;
9522;SDS011;63165;43.016;25.784;2022-11-13T01:54:47;38.97;;;11.43;;
9522;SDS011;63165;43.016;25.784;2022-11-13T01:57:17;34.35;;;10.50;;
9522;SDS011;63165;43.016;25.784;2022-11-13T01:59:46;30.08;;;9.85;;
9522;SDS011;63165;43.016;25.784;2022-11-13T02:02:18;31.23;;;11.20;;
9522;SDS011;63165;43.016;25.784;2022-11-13T02:04:45;36.08;;;11.00;;
9522;SDS011;63165;43.016;25.784;2022-11-13T02:07:13;38.03;;;10.98;;
9522;SDS011;63165;43.016;25.784;2022-11-13T02:09:44;38.85;;;10.38;;
9522;SDS011;63165;43.016;25.784;2022-11-13T02:12:14;34.13;;;9.98;;
9522;SDS011;63165;43.016;25.784;2022-11-13T02:14:45;36.30;;;10.38;;
9522;SDS011;63165;43.016;25.784;2022-11-13T02:17:17;45.58;;;13.93;;
9522;SDS011;63165;43.016;25.784;2022-11-13T02:19:50;44.30;;;12.77;;
9522;SDS011;63165;43.016;25.784;2022-11-13T02:22:21;61.38;;;16.88;;
9522;SDS011;63165;43.016;25.784;2022-11-13T02:24:56;54.50;;;15.18;;
9522;SDS011;63165;43.016;25.784;2022-11-13T02:27:26;40.65;;;11.90;;
9522;SDS011;63165;43.016;25.784;2022-11-13T02:30:09;40.33;;;11.27;;
9522;SDS011;63165;43.016;25.784;2022-11-13T02:32:41;33.72;;;10.55;;
9522;SDS011;63165;43.016;25.784;2022-11-13T02:35:10;44.95;;;14.43;;
9522;SDS011;63165;43.016;25.784;2022-11-13T02:37:37;81.32;;;23.95;;
9522;SDS011;63165;43.016;25.784;2022-11-13T02:40:06;79.47;;;26.25;;
9522;SDS011;63165;43.016;25.784;2022-11-13T02:42:34;94.20;;;30.02;;
9522;SDS011;63165;43.016;25.784;2022-11-13T02:45:02;79.18;;;25.58;;
9522;SDS011;63165;43.016;25.784;2022-11-13T02:47:30;61.90;;;18.55;;
9522;SDS011;63165;43.016;25.784;2022-11-13T02:49:57;82.60;;;20.98;;
9522;SDS011;63165;43.016;25.784;2022-11-13T02:52:25;64.72;;;17.48;;
9522;SDS011;63165;43.016;25.784;2022-11-13T02:54:52;122.05;;;27.48;;
9522;SDS011;63165;43.016;25.784;2022-11-13T02:57:21;93.47;;;20.73;;
9522;SDS011;63165;43.016;25.784;2022-11-13T02:59:48;120.85;;;19.48;;
9522;SDS011;63165;43.016;25.784;2022-11-13T03:02:16;99.40;;;20.55;;
9522;SDS011;63165;43.016;25.784;2022-11-13T03:04:43;63.20;;;18.35;;
9522;SDS011;63165;43.016;25.784;2022-11-13T03:07:10;67.03;;;17.98;;
9522;SDS011;63165;43.016;25.784;2022-11-13T03:09:38;56.45;;;15.95;;
9522;SDS011;63165;43.016;25.784;2022-11-13T03:12:05;64.47;;;17.52;;
9522;SDS011;63165;43.016;25.784;2022-11-13T03:14:35;57.67;;;14.77;;
9522;SDS011;63165;43.016;25.784;2022-11-13T03:17:02;44.92;;;13.10;;
9522;SDS011;63165;43.016;25.784;2022-11-13T03:19:30;52.67;;;14.55;;
9522;SDS011;63165;43.016;25.784;2022-11-13T03:21:57;55.63;;;16.90;;
9522;SDS011;63165;43.016;25.784;2022-11-13T03:24:24;43.22;;;14.48;;
9522;SDS011;63165;43.016;25.784;2022-11-13T03:26:51;70.57;;;17.80;;
9522;SDS011;63165;43.016;25.784;2022-11-13T03:29:18;70.78;;;18.65;;
9522;SDS011;63165;43.016;25.784;2022-11-13T03:31:47;72.47;;;18.80;;
9522;SDS011;63165;43.016;25.784;2022-11-13T03:34:14;65.78;;;17.77;;
9522;SDS011;63165;43.016;25.784;2022-11-13T03:36:43;65.35;;;18.02;;
9522;SDS011;63165;43.016;25.784;2022-11-13T03:39:10;57.92;;;16.70;;
9522;SDS011;63165;43.016;25.784;2022-11-13T03:41:37;66.93;;;21.60;;
9522;SDS011;63165;43.016;25.784;2022-11-13T03:44:04;55.30;;;16.00;;
9522;SDS011;63165;43.016;25.784;2022-11-13T03:46:31;49.33;;;14.95;;
9522;SDS011;63165;43.016;25.784;2022-11-13T03:49:01;64.78;;;15.70;;
9522;SDS011;63165;43.016;25.784;2022-11-13T03:51:28;64.88;;;17.90;;
9522;SDS011;63165;43.016;25.784;2022-11-13T03:53:55;54.70;;;16.48;;
9522;SDS011;63165;43.016;25.784;2022-11-13T03:56:22;53.75;;;16.55;;
9522;SDS011;63165;43.016;25.784;2022-11-13T03:58:49;55.60;;;16.92;;
9522;SDS011;63165;43.016;25.784;2022-11-13T04:01:17;54.90;;;17.00;;
9522;SDS011;63165;43.016;25.784;2022-11-13T04:03:44;76.45;;;19.67;;
9522;SDS011;63165;43.016;25.784;2022-11-13T04:06:13;54.97;;;15.93;;
9522;SDS011;63165;43.016;25.784;2022-11-13T04:08:40;61.35;;;17.08;;
9522;SDS011;63165;43.016;25.784;2022-11-13T04:11:07;50.53;;;14.18;;
9522;SDS011;63165;43.016;25.784;2022-11-13T04:13:36;44.25;;;14.90;;
9522;SDS011;63165;43.016;25.784;2022-11-13T04:16:03;44.33;;;13.77;;
9522;SDS011;63165;43.016;25.784;2022-11-13T04:18:31;45.90;;;14.35;;
9522;SDS011;63165;43.016;25.784;2022-11-13T04:20:58;78.32;;;23.08;;
9522;SDS011;63165;43.016;25.784;2022-11-13T04:23:28;62.88;;;18.50;;
9522;SDS011;63165;43.016;25.784;2022-11-13T04:25:55;55.13;;;15.10;;
9522;SDS011;63165;43.016;25.784;2022-11-13T04:28:23;50.10;;;15.00;;
9522;SDS011;63165;43.016;25.784;2022-11-13T04:30:51;55.15;;;15.82;;
9522;SDS011;63165;43.016;25.784;2022-11-13T04:33:19;45.47;;;14.35;;
9522;SDS011;63165;43.016;25.784;2022-11-13T04:35:46;45.20;;;14.57;;
9522;SDS011;63165;43.016;25.784;2022-11-13T04:38:14;51.65;;;15.60;;
9522;SDS011;63165;43.016;25.784;2022-11-13T04:40:42;52.50;;;14.27;;
9522;SDS011;63165;43.016;25.784;2022-11-13T04:43:10;50.70;;;14.73;;
9522;SDS011;63165;43.016;25.784;2022-11-13T04:45:36;41.50;;;13.30;;
9522;SDS011;63165;43.016;25.784;2022-11-13T04:48:03;42.85;;;12.75;;
9522;SDS011;63165;43.016;25.784;2022-11-13T04:50:30;39.67;;;11.70;;
9522;SDS011;63165;43.016;25.784;2022-11-13T04:52:58;36.33;;;12.13;;
9522;SDS011;63165;43.016;25.784;2022-11-13T04:55:25;32.35;;;10.77;;
9522;SDS011;63165;43.016;25.784;2022-11-13T04:57:54;34.42;;;10.95;;
9522;SDS011;63165;43.016;25.784;2022-11-13T05:00:21;42.92;;;13.00;;
9522;SDS011;63165;43.016;25.784;2022-11-13T05:02:49;40.78;;;13.82;;
9522;SDS011;63165;43.016;25.784;2022-11-13T05:05:16;51.63;;;15.55;;
9522;SDS011;63165;43.016;25.784;2022-11-13T05:07:43;47.10;;;12.75;;
9522;SDS011;63165;43.016;25.784;2022-11-13T05:10:10;44.08;;;12.38;;
9522;SDS011;63165;43.016;25.784;2022-11-13T05:12:38;42.15;;;12.65;;
9522;SDS011;63165;43.016;25.784;2022-11-13T05:15:07;42.08;;;14.25;;
9522;SDS011;63165;43.016;25.784;2022-11-13T05:17:34;46.95;;;14.88;;
9522;SDS011;63165;43.016;25.784;2022-11-13T05:20:02;66.00;;;18.25;;
9522;SDS011;63165;43.016;25.784;2022-11-13T05:22:30;112.47;;;34.70;;
9522;SDS011;63165;43.016;25.784;2022-11-13T05:24:57;59.65;;;20.63;;
9522;SDS011;63165;43.016;25.784;2022-11-13T05:27:24;64.05;;;20.02;;
9522;SDS011;63165;43.016;25.784;2022-11-13T05:29:51;59.90;;;18.25;;
9522;SDS011;63165;43.016;25.784;2022-11-13T05:32:20;54.63;;;16.90;;
9522;SDS011;63165;43.016;25.784;2022-11-13T05:34:47;55.63;;;18.88;;
9522;SDS011;63165;43.016;25.784;2022-11-13T05:37:14;50.90;;;17.70;;
9522;SDS011;63165;43.016;25.784;2022-11-13T05:39:41;77.50;;;23.60;;
9522;SDS011;63165;43.016;25.784;2022-11-13T05:42:09;56.33;;;17.25;;
9522;SDS011;63165;43.016;25.784;2022-11-13T05:44:36;56.92;;;17.05;;
9522;SDS011;63165;43.016;25.784;2022-11-13T05:47:03;55.25;;;14.70;;
9522;SDS011;63165;43.016;25.784;2022-11-13T05:49:32;35.45;;;12.05;;
9522;SDS011;63165;43.016;25.784;2022-11-13T05:51:59;47.45;;;16.23;;
9522;SDS011;63165;43.016;25.784;2022-11-13T05:54:26;64.97;;;22.80;;
9522;SDS011;63165;43.016;25.784;2022-11-13T05:56:53;48.90;;;16.38;;
9522;SDS011;63165;43.016;25.784;2022-11-13T05:59:21;43.60;;;14.98;;
9522;SDS011;63165;43.016;25.784;2022-11-13T06:01:48;41.15;;;14.27;;
9522;SDS011;63165;43.016;25.784;2022-11-13T06:04:15;59.97;;;17.38;;
9522;SDS011;63165;43.016;25.784;2022-11-13T06:06:44;40.97;;;14.45;;
9522;SDS011;63165;43.016;25.784;2022-11-13T06:09:11;39.25;;;13.48;;
9522;SDS011;63165;43.016;25.784;2022-11-13T06:11:41;41.80;;;14.23;;
9522;SDS011;63165;43.016;25.784;2022-11-13T06:14:08;42.28;;;14.18;;
9522;SDS011;63165;43.016;25.784;2022-11-13T06:16:36;47.25;;;15.32;;
9522;SDS011;63165;43.016;25.784;2022-11-13T06:19:05;56.60;;;15.50;;
9522;SDS011;63165;43.016;25.784;2022-11-13T06:21:34;45.70;;;14.65;;
9522;SDS011;63165;43.016;25.784;2022-11-13T06:24:04;45.53;;;14.43;;
9522;SDS011;63165;43.016;25.784;2022-11-13T06:26:33;50.75;;;14.80;;
9522;SDS011;63165;43.016;25.784;2022-11-13T06:29:03;45.35;;;13.52;;
9522;SDS011;63165;43.016;25.784;2022-11-13T06:31:32;40.80;;;13.57;;
9522;SDS011;63165;43.016;25.784;2022-11-13T06:34:01;43.38;;;14.60;;
9522;SDS011;63165;43.016;25.784;2022-11-13T06:36:30;50.67;;;15.27;;
9522;SDS011;63165;43.016;25.784;2022-11-13T06:38:59;49.50;;;15.68;;
9522;SDS011;63165;43.016;25.784;2022-11-13T06:41:28;60.25;;;18.98;;
9522;SDS011;63165;43.016;25.784;2022-11-13T06:43:56;45.78;;;15.10;;
9522;SDS011;63165;43.016;25.784;2022-11-13T06:46:25;50.95;;;14.55;;
9522;SDS011;63165;43.016;25.784;2022-11-13T06:48:53;45.88;;;14.07;;
9522;SDS011;63165;43.016;25.784;2022-11-13T06:51:21;38.33;;;12.27;;
9522;SDS011;63165;43.016;25.784;2022-11-13T06:53:51;43.88;;;15.80;;
9522;SDS011;63165;43.016;25.784;2022-11-13T06:56:18;37.92;;;15.48;;
9522;SDS011;63165;43.016;25.784;2022-11-13T06:58:47;30.95;;;11.18;;
9522;SDS011;63165;43.016;25.784;2022-11-13T07:01:16;26.50;;;9.32;;
9522;SDS011;63165;43.016;25.784;2022-11-13T07:03:44;22.92;;;8.55;;
9522;SDS011;63165;43.016;25.784;2022-11-13T07:06:12;22.25;;;8.25;;
9522;SDS011;63165;43.016;25.784;2022-11-13T07:08:40;24.13;;;8.27;;
9522;SDS011;63165;43.016;25.784;2022-11-13T07:11:09;36.33;;;11.48;;
9522;SDS011;63165;43.016;25.784;2022-11-13T07:13:38;31.58;;;9.48;;
9522;SDS011;63165;43.016;25.784;2022-11-13T07:16:08;29.95;;;10.90;;
9522;SDS011;63165;43.016;25.784;2022-11-13T07:18:36;25.17;;;8.77;;
9522;SDS011;63165;43.016;25.784;2022-11-13T07:21:04;27.45;;;8.48;;
9522;SDS011;63165;43.016;25.784;2022-11-13T07:23:32;30.02;;;9.93;;
9522;SDS011;63165;43.016;25.784;2022-11-13T07:26:01;30.35;;;9.52;;
9522;SDS011;63165;43.016;25.784;2022-11-13T07:28:28;28.38;;;9.77;;
9522;SDS011;63165;43.016;25.784;2022-11-13T07:30:56;31.75;;;11.23;;
9522;SDS011;63165;43.016;25.784;2022-11-13T07:33:25;29.83;;;9.50;;
9522;SDS011;63165;43.016;25.784;2022-11-13T07:35:52;35.88;;;13.50;;
9522;SDS011;63165;43.016;25.784;2022-11-13T07:38:20;29.60;;;9.60;;
9522;SDS011;63165;43.016;25.784;2022-11-13T07:40:47;28.92;;;9.30;;
9522;SDS011;63165;43.016;25.784;2022-11-13T07:43:14;63.65;;;15.73;;
9522;SDS011;63165;43.016;25.784;2022-11-13T07:45:42;43.90;;;12.55;;
9522;SDS011;63165;43.016;25.784;2022-11-13T07:48:09;31.98;;;10.32;;
9522;SDS011;63165;43.016;25.784;2022-11-13T07:50:38;28.77;;;9.70;;
9522;SDS011;63165;43.016;25.784;2022-11-13T07:53:06;28.05;;;9.73;;
9522;SDS011;63165;43.016;25.784;2022-11-13T07:55:35;30.80;;;11.45;;
9522;SDS011;63165;43.016;25.784;2022-11-13T07:58:02;26.23;;;8.77;;
9522;SDS011;63165;43.016;25.784;2022-11-13T08:00:30;28.80;;;9.25;;
9522;SDS011;63165;43.016;25.784;2022-11-13T08:03:03;28.92;;;11.40;;
9522;SDS011;63165;43.016;25.784;2022-11-13T08:05:31;26.90;;;8.55;;
9522;SDS011;63165;43.016;25.784;2022-11-13T08:07:59;26.13;;;9.27;;
9522;SDS011;63165;43.016;25.784;2022-11-13T08:10:27;34.50;;;10.70;;
9522;SDS011;63165;43.016;25.784;2022-11-13T08:12:57;30.50;;;9.90;;
9522;SDS011;63165;43.016;25.784;2022-11-13T08:15:26;26.70;;;9.00;;
9522;SDS011;63165;43.016;25.784;2022-11-13T08:17:54;27.70;;;9.40;;
9522;SDS011;63165;43.016;25.784;2022-11-13T08:20:23;28.83;;;9.20;;
9522;SDS011;63165;43.016;25.784;2022-11-13T08:22:54;27.30;;;8.98;;
9522;SDS011;63165;43.016;25.784;2022-11-13T08:25:24;28.50;;;8.95;;
9522;SDS011;63165;43.016;25.784;2022-11-13T08:27:51;26.00;;;8.77;;
9522;SDS011;63165;43.016;25.784;2022-11-13T08:30:19;30.08;;;9.63;;
9522;SDS011;63165;43.016;25.784;2022-11-13T08:32:46;24.60;;;9.07;;
9522;SDS011;63165;43.016;25.784;2022-11-13T08:35:14;29.30;;;10.27;;
9522;SDS011;63165;43.016;25.784;2022-11-13T08:37:41;24.80;;;9.23;;
9522;SDS011;63165;43.016;25.784;2022-11-13T08:40:09;26.27;;;9.20;;
9522;SDS011;63165;43.016;25.784;2022-11-13T08:42:39;24.08;;;8.90;;
9522;SDS011;63165;43.016;25.784;2022-11-13T08:45:06;24.70;;;8.98;;
9522;SDS011;63165;43.016;25.784;2022-11-13T08:47:35;32.47;;;11.80;;
9522;SDS011;63165;43.016;25.784;2022-11-13T08:50:03;29.45;;;10.95;;
9522;SDS011;63165;43.016;25.784;2022-11-13T08:52:31;26.63;;;10.70;;
9522;SDS011;63165;43.016;25.784;2022-11-13T08:54:58;31.92;;;10.27;;
9522;SDS011;63165;43.016;25.784;2022-11-13T08:57:26;25.23;;;9.25;;
9522;SDS011;63165;43.016;25.784;2022-11-13T08:59:54;24.10;;;8.45;;
9522;SDS011;63165;43.016;25.784;2022-11-13T09:02:22;27.45;;;9.18;;
9522;SDS011;63165;43.016;25.784;2022-11-13T09:04:49;23.55;;;8.95;;
9522;SDS011;63165;43.016;25.784;2022-11-13T09:07:16;27.42;;;9.13;;
9522;SDS011;63165;43.016;25.784;2022-11-13T09:09:44;23.33;;;8.13;;
9522;SDS011;63165;43.016;25.784;2022-11-13T09:12:11;22.23;;;7.70;;
9522;SDS011;63165;43.016;25.784;2022-11-13T09:14:38;22.50;;;8.15;;
9522;SDS011;63165;43.016;25.784;2022-11-13T09:17:07;21.90;;;7.50;;
9522;SDS011;63165;43.016;25.784;2022-11-13T09:19:34;22.80;;;8.32;;
9522;SDS011;63165;43.016;25.784;2022-11-13T09:22:02;24.23;;;9.07;;
9522;SDS011;63165;43.016;25.784;2022-11-13T09:24:29;22.45;;;8.25;;
9522;SDS011;63165;43.016;25.784;2022-11-13T09:26:56;21.38;;;7.93;;
9522;SDS011;63165;43.016;25.784;2022-11-13T09:29:24;24.40;;;8.02;;
9522;SDS011;63165;43.016;25.784;2022-11-13T09:31:52;24.90;;;8.60;;
9522;SDS011;63165;43.016;25.784;2022-11-13T09:34:21;26.30;;;8.93;;
9522;SDS011;63165;43.016;25.784;2022-11-13T09:36:51;21.67;;;7.63;;
9522;SDS011;63165;43.016;25.784;2022-11-13T09:39:18;21.17;;;7.68;;
9522;SDS011;63165;43.016;25.784;2022-11-13T09:41:46;23.17;;;7.95;;
9522;SDS011;63165;43.016;25.784;2022-11-13T09:44:28;22.25;;;6.60;;
9522;SDS011;63165;43.016;25.784;2022-11-13T09:47:01;22.33;;;7.43;;
9522;SDS011;63165;43.016;25.784;2022-11-13T09:49:37;23.17;;;7.63;;
9522;SDS011;63165;43.016;25.784;2022-11-13T09:52:09;24.15;;;7.57;;
9522;SDS011;63165;43.016;25.784;2022-11-13T09:54:39;18.70;;;7.57;;
9522;SDS011;63165;43.016;25.784;2022-11-13T09:57:10;24.20;;;7.97;;
9522;SDS011;63165;43.016;25.784;2022-11-13T09:59:47;21.55;;;7.38;;
9522;SDS011;63165;43.016;25.784;2022-11-13T10:02:20;17.50;;;6.80;;
9522;SDS011;63165;43.016;25.784;2022-11-13T10:04:56;18.42;;;7.28;;
9522;SDS011;63165;43.016;25.784;2022-11-13T10:07:33;19.48;;;7.35;;
9522;SDS011;63165;43.016;25.784;2022-11-13T10:13:10;23.95;;;8.05;;
9522;SDS011;63165;43.016;25.784;2022-11-13T10:15:41;20.27;;;7.40;;
9522;SDS011;63165;43.016;25.784;2022-11-13T10:18:12;20.10;;;7.20;;
9522;SDS011;63165;43.016;25.784;2022-11-13T10:20:45;23.73;;;8.63;;
9522;SDS011;63165;43.016;25.784;2022-11-13T10:23:15;23.67;;;7.70;;
9522;SDS011;63165;43.016;25.784;2022-11-13T10:25:45;17.25;;;6.65;;
9522;SDS011;63165;43.016;25.784;2022-11-13T10:28:16;20.17;;;7.75;;
9522;SDS011;63165;43.016;25.784;2022-11-13T10:34:04;17.95;;;7.18;;
9522;SDS011;63165;43.016;25.784;2022-11-13T10:36:35;24.98;;;7.70;;
9522;SDS011;63165;43.016;25.784;2022-11-13T10:39:10;19.52;;;7.55;;
9522;SDS011;63165;43.016;25.784;2022-11-13T10:41:44;18.13;;;6.65;;
9522;SDS011;63165;43.016;25.784;2022-11-13T10:44:17;19.55;;;6.30;;
9522;SDS011;63165;43.016;25.784;2022-11-13T10:46:48;17.80;;;6.20;;
9522;SDS011;63165;43.016;25.784;2022-11-13T10:49:17;18.02;;;6.70;;
9522;SDS011;63165;43.016;25.784;2022-11-13T10:51:54;18.40;;;6.82;;
9522;SDS011;63165;43.016;25.784;2022-11-13T10:54:24;17.98;;;7.20;;
9522;SDS011;63165;43.016;25.784;2022-11-13T10:56:57;16.58;;;6.55;;
9522;SDS011;63165;43.016;25.784;2022-11-13T10:59:25;18.83;;;6.88;;
9522;SDS011;63165;43.016;25.784;2022-11-13T11:02:08;16.50;;;6.70;;
9522;SDS011;63165;43.016;25.784;2022-11-13T11:04:42;19.17;;;7.00;;
9522;SDS011;63165;43.016;25.784;2022-11-13T11:07:13;16.90;;;6.55;;
9522;SDS011;63165;43.016;25.784;2022-11-13T11:09:41;19.27;;;6.95;;
9522;SDS011;63165;43.016;25.784;2022-11-13T11:12:11;21.33;;;6.55;;
9522;SDS011;63165;43.016;25.784;2022-11-13T11:14:41;20.67;;;6.68;;
9522;SDS011;63165;43.016;25.784;2022-11-13T11:17:20;17.27;;;7.15;;
9522;SDS011;63165;43.016;25.784;2022-11-13T11:19:51;18.50;;;6.85;;
9522;SDS011;63165;43.016;25.784;2022-11-13T11:22:26;15.55;;;6.03;;
9522;SDS011;63165;43.016;25.784;2022-11-13T11:24:59;19.52;;;6.20;;
9522;SDS011;63165;43.016;25.784;2022-11-13T11:27:31;18.05;;;6.53;;
9522;SDS011;63165;43.016;25.784;2022-11-13T11:30:03;24.35;;;8.77;;
9522;SDS011;63165;43.016;25.784;2022-11-13T11:32:33;46.08;;;14.00;;
9522;SDS011;63165;43.016;25.784;2022-11-13T11:35:10;14.35;;;6.07;;
9522;SDS011;63165;43.016;25.784;2022-11-13T11:37:48;35.30;;;11.52;;
9522;SDS011;63165;43.016;25.784;2022-11-13T11:40:24;18.50;;;6.45;;
9522;SDS011;63165;43.016;25.784;2022-11-13T11:42:57;13.90;;;5.40;;
9522;SDS011;63165;43.016;25.784;2022-11-13T11:45:33;15.43;;;6.13;;
9522;SDS011;63165;43.016;25.784;2022-11-13T11:48:07;14.25;;;5.88;;
9522;SDS011;63165;43.016;25.784;2022-11-13T11:50:38;16.98;;;6.60;;
9522;SDS011;63165;43.016;25.784;2022-11-13T11:53:15;22.02;;;8.65;;
9522;SDS011;63165;43.016;25.784;2022-11-13T11:55:55;19.10;;;7.60;;
9522;SDS011;63165;43.016;25.784;2022-11-13T11:58:37;24.83;;;8.38;;
9522;SDS011;63165;43.016;25.784;2022-11-13T12:01:43;24.10;;;8.77;;
9522;SDS011;63165;43.016;25.784;2022-11-13T12:04:27;23.02;;;9.15;;
9522;SDS011;63165;43.016;25.784;2022-11-13T12:07:05;25.98;;;8.90;;
9522;SDS011;63165;43.016;25.784;2022-11-13T12:09:46;24.83;;;8.57;;
9522;SDS011;63165;43.016;25.784;2022-11-13T12:12:24;22.63;;;9.55;;
9522;SDS011;63165;43.016;25.784;2022-11-13T12:15:00;26.33;;;9.07;;
9522;SDS011;63165;43.016;25.784;2022-11-13T12:17:40;25.55;;;8.20;;
9522;SDS011;63165;43.016;25.784;2022-11-13T12:20:18;25.52;;;9.18;;
9522;SDS011;63165;43.016;25.784;2022-11-13T12:22:54;25.25;;;8.02;;
9522;SDS011;63165;43.016;25.784;2022-11-13T12:25:34;17.92;;;7.40;;
9522;SDS011;63165;43.016;25.784;2022-11-13T12:28:09;26.85;;;12.70;;
9522;SDS011;63165;43.016;25.784;2022-11-13T12:30:43;17.17;;;7.30;;
9522;SDS011;63165;43.016;25.784;2022-11-13T12:33:22;19.13;;;7.43;;
9522;SDS011;63165;43.016;25.784;2022-11-13T12:35:56;18.60;;;7.63;;
9522;SDS011;63165;43.016;25.784;2022-11-13T12:38:30;25.40;;;8.35;;
9522;SDS011;63165;43.016;25.784;2022-11-13T12:41:06;22.13;;;7.80;;
9522;SDS011;63165;43.016;25.784;2022-11-13T12:43:46;21.05;;;8.18;;
9522;SDS011;63165;43.016;25.784;2022-11-13T12:46:38;21.45;;;7.88;;
9522;SDS011;63165;43.016;25.784;2022-11-13T12:51:53;22.35;;;7.80;;
9522;SDS011;63165;43.016;25.784;2022-11-13T12:54:25;28.02;;;8.43;;
9522;SDS011;63165;43.016;25.784;2022-11-13T12:59:48;17.77;;;6.72;;
9522;SDS011;63165;43.016;25.784;2022-11-13T13:02:28;20.90;;;7.20;;
9522;SDS011;63165;43.016;25.784;2022-11-13T13:05:01;20.25;;;7.93;;
9522;SDS011;63165;43.016;25.784;2022-11-13T13:07:46;16.23;;;6.45;;
9522;SDS011;63165;43.016;25.784;2022-11-13T13:10:26;15.80;;;6.47;;
9522;SDS011;63165;43.016;25.784;2022-11-13T13:13:02;15.98;;;6.07;;
9522;SDS011;63165;43.016;25.784;2022-11-13T13:15:39;19.65;;;6.15;;
9522;SDS011;63165;43.016;25.784;2022-11-13T13:18:23;19.58;;;6.85;;
9522;SDS011;63165;43.016;25.784;2022-11-13T13:20:59;19.20;;;6.50;;
9522;SDS011;63165;43.016;25.784;2022-11-13T13:23:31;18.23;;;6.53;;
9522;SDS011;63165;43.016;25.784;2022-11-13T13:26:01;20.83;;;6.50;;
9522;SDS011;63165;43.016;25.784;2022-11-13T13:28:32;15.23;;;5.70;;
9522;SDS011;63165;43.016;25.784;2022-11-13T13:31:06;16.17;;;6.57;;
9522;SDS011;63165;43.016;25.784;2022-11-13T13:33:51;13.55;;;5.90;;
9522;SDS011;63165;43.016;25.784;2022-11-13T13:36:29;15.45;;;5.93;;
9522;SDS011;63165;43.016;25.784;2022-11-13T13:39:06;17.58;;;6.10;;
9522;SDS011;63165;43.016;25.784;2022-11-13T13:41:59;15.30;;;5.70;;
9522;SDS011;63165;43.016;25.784;2022-11-13T13:44:54;17.90;;;6.65;;
9522;SDS011;63165;43.016;25.784;2022-11-13T13:47:36;49.03;;;15.85;;
9522;SDS011;63165;43.016;25.784;2022-11-13T13:50:06;86.60;;;30.30;;
9522;SDS011;63165;43.016;25.784;2022-11-13T13:52:38;63.30;;;20.33;;
9522;SDS011;63165;43.016;25.784;2022-11-13T13:55:14;26.58;;;10.63;;
9522;SDS011;63165;43.016;25.784;2022-11-13T13:57:43;22.23;;;9.65;;
9522;SDS011;63165;43.016;25.784;2022-11-13T14:00:13;23.10;;;8.13;;
9522;SDS011;63165;43.016;25.784;2022-11-13T14:02:44;23.45;;;9.18;;
9522;SDS011;63165;43.016;25.784;2022-11-13T14:05:16;33.28;;;10.88;;
9522;SDS011;63165;43.016;25.784;2022-11-13T14:07:52;26.20;;;10.35;;
9522;SDS011;63165;43.016;25.784;2022-11-13T14:10:19;30.00;;;10.57;;
9522;SDS011;63165;43.016;25.784;2022-11-13T14:12:48;27.08;;;9.75;;
9522;SDS011;63165;43.016;25.784;2022-11-13T14:15:21;30.30;;;11.43;;
9522;SDS011;63165;43.016;25.784;2022-11-13T14:17:51;21.52;;;8.15;;
9522;SDS011;63165;43.016;25.784;2022-11-13T14:20:33;24.67;;;8.93;;
9522;SDS011;63165;43.016;25.784;2022-11-13T14:23:07;26.13;;;8.93;;
9522;SDS011;63165;43.016;25.784;2022-11-13T14:25:37;23.38;;;7.90;;
9522;SDS011;63165;43.016;25.784;2022-11-13T14:28:11;23.88;;;9.02;;
9522;SDS011;63165;43.016;25.784;2022-11-13T14:30:41;22.00;;;8.15;;
9522;SDS011;63165;43.016;25.784;2022-11-13T14:33:12;23.08;;;8.85;;
9522;SDS011;63165;43.016;25.784;2022-11-13T14:38:17;20.87;;;8.50;;
9522;SDS011;63165;43.016;25.784;2022-11-13T14:40:46;19.38;;;8.02;;
9522;SDS011;63165;43.016;25.784;2022-11-13T14:43:15;25.10;;;9.02;;
9522;SDS011;63165;43.016;25.784;2022-11-13T14:45:55;31.23;;;11.60;;
9522;SDS011;63165;43.016;25.784;2022-11-13T14:48:24;36.25;;;8.73;;
9522;SDS011;63165;43.016;25.784;2022-11-13T14:50:54;27.83;;;10.15;;
9522;SDS011;63165;43.016;25.784;2022-11-13T14:53:26;25.00;;;9.15;;
9522;SDS011;63165;43.016;25.784;2022-11-13T14:55:57;36.30;;;13.55;;
9522;SDS011;63165;43.016;25.784;2022-11-13T14:58:26;70.10;;;24.75;;